Time;durP1;ratioP1;P1;durP2;ratioP2;P2;SDS_P1;SDS_P2;PMS_P1;PMS_P2;Temp;Humidity;BMP_temperature;BMP_pressure;BME280_temperature;BME280_humidity;BME280_pressure;Samples;Min_cycle;Max_cycle;Signal;HPM_P1;HPM_P2
2022/06/13 00:01:50;;;;;;;2.65;1.80;;;25.00;54.40;;;;;;5091462;28;20506;-74
2022/06/13 00:04:53;;;;;;;3.78;1.83;;;25.00;54.50;;;;;;5091549;28;20055;-75
2022/06/13 00:07:58;;;;;;;5.18;2.00;;;25.00;54.70;;;;;;5092793;28;20593;-75
2022/06/13 00:11:04;;;;;;;4.75;1.75;;;24.90;55.20;;;;;;5092282;28;20039;-75
2022/06/13 00:14:09;;;;;;;6.03;3.03;;;24.70;55.70;;;;;;5092294;28;20053;-75
2022/06/13 00:17:12;;;;;;;6.15;2.30;;;24.70;56.30;;;;;;5092071;28;20055;-75
2022/06/13 00:20:16;;;;;;;2.78;1.92;;;24.60;57.40;;;;;;5092185;28;20052;-75
2022/06/13 00:23:21;;;;;;;3.30;1.88;;;24.50;56.90;;;;;;5092133;28;20517;-75
2022/06/13 00:26:27;;;;;;;6.68;2.33;;;24.50;56.50;;;;;;5091399;28;20047;-74
2022/06/13 00:29:31;;;;;;;6.13;1.95;;;24.50;56.40;;;;;;5091122;28;20051;-74
2022/06/13 00:32:35;;;;;;;2.92;1.80;;;24.50;56.30;;;;;;5092026;28;20224;-75
2022/06/13 00:35:39;;;;;;;4.85;1.98;;;24.50;56.90;;;;;;5091735;28;20055;-75
2022/06/13 00:38:44;;;;;;;6.85;1.88;;;24.40;57.10;;;;;;5091700;28;20526;-75
2022/06/13 00:41:49;;;;;;;4.28;2.17;;;24.30;57.60;;;;;;5092040;28;20043;-75
2022/06/13 00:45:14;;;;;;;6.35;2.00;;;24.20;57.90;;;;;;5091863;28;20047;-74
2022/06/13 00:48:24;;;;;;;19.15;2.40;;;24.20;58.10;;;;;;5091770;28;20051;-75
2022/06/13 00:51:30;;;;;;;7.05;2.35;;;24.30;58.40;;;;;;5091473;28;20494;-74
2022/06/13 00:54:35;;;;;;;8.60;2.03;;;24.20;58.40;;;;;;5091081;28;20043;-75
2022/06/13 00:57:39;;;;;;;6.95;1.80;;;24.10;58.30;;;;;;5091463;28;20076;-75
2022/06/13 01:00:50;;;;;;;2.83;1.80;;;24.10;58.10;;;;;;5090405;28;20431;-75
2022/06/13 01:03:57;;;;;;;4.13;1.90;;;24.20;57.50;;;;;;5091614;28;20063;-74
2022/06/13 01:07:02;;;;;;;4.15;2.25;;;24.00;58.40;;;;;;5078930;28;20047;-74
2022/06/13 01:13:39;;;;;;;10.40;2.60;;;23.40;60.00;;;;;;5091357;28;20412;-74
2022/06/13 01:17:05;;;;;;;4.70;2.42;;;23.40;60.10;;;;;;5091042;28;20224;-74
2022/06/13 01:20:39;;;;;;;6.38;2.15;;;23.50;60.40;;;;;;5091162;28;20059;-75
2022/06/13 01:24:08;;;;;;;5.60;2.30;;;23.50;60.50;;;;;;5091302;28;20051;-75
2022/06/13 01:27:44;;;;;;;5.57;2.30;;;23.50;60.90;;;;;;5091001;28;20391;-75
2022/06/13 01:30:54;;;;;;;4.60;2.60;;;23.40;61.40;;;;;;5090960;28;20043;-74
2022/06/13 01:34:32;;;;;;;6.53;2.50;;;23.10;62.40;;;;;;5091151;28;20039;-75
2022/06/13 01:38:03;;;;;;;5.72;2.10;;;23.10;62.80;;;;;;5090285;28;20055;-75
2022/06/13 01:41:52;;;;;;;10.48;2.88;;;23.00;63.30;;;;;;5090299;28;20498;-75
2022/06/13 01:45:02;;;;;;;5.32;2.90;;;22.90;63.50;;;;;;5090212;28;20392;-75
2022/06/13 01:48:29;;;;;;;6.70;2.90;;;22.70;63.40;;;;;;5091396;28;20047;-74
2022/06/13 01:52:14;;;;;;;6.95;2.95;;;22.60;64.40;;;;;;5090211;28;20051;-75
2022/06/13 01:55:33;;;;;;;6.22;2.78;;;22.60;64.10;;;;;;5076821;28;20047;-75
2022/06/13 01:58:37;;;;;;;3.78;2.70;;;22.60;64.20;;;;;;5088659;28;20146;-74
2022/06/13 02:01:52;;;;;;;6.45;2.50;;;22.40;64.70;;;;;;5090646;28;20047;-74
2022/06/13 02:05:01;;;;;;;8.75;2.40;;;22.50;64.90;;;;;;5090791;28;20047;-75
2022/06/13 02:08:11;;;;;;;4.18;2.35;;;22.60;64.60;;;;;;5089986;28;20051;-75
2022/06/13 02:11:48;;;;;;;5.32;2.58;;;22.40;64.70;;;;;;5090803;28;20043;-74
2022/06/13 02:14:57;;;;;;;5.13;2.30;;;22.40;65.70;;;;;;5093284;28;20066;-75
2022/06/13 02:18:08;;;;;;;4.20;2.67;;;22.50;66.00;;;;;;5094185;28;20055;-75
2022/06/13 02:21:14;;;;;;;5.07;2.78;;;22.50;64.60;;;;;;5094468;28;20047;-75
2022/06/13 02:24:23;;;;;;;7.03;2.80;;;22.50;64.70;;;;;;5093695;28;20043;-74
2022/06/13 02:27:32;;;;;;;4.82;2.65;;;22.40;65.40;;;;;;5094035;28;20047;-75
2022/06/13 02:30:42;;;;;;;5.25;2.75;;;22.30;65.70;;;;;;5094326;28;20055;-74
2022/06/13 02:33:51;;;;;;;6.13;2.73;;;22.30;64.80;;;;;;5094452;28;20047;-74
2022/06/13 02:37:09;;;;;;;3.72;2.60;;;22.40;65.00;;;;;;5093980;28;20407;-74
2022/06/13 02:40:35;;;;;;;8.07;2.45;;;22.40;64.50;;;;;;5093285;28;20475;-75
2022/06/13 02:43:43;;;;;;;7.70;2.80;;;22.50;64.70;;;;;;5094182;28;20038;-75
2022/06/13 02:46:56;;;;;;;9.48;2.88;;;22.50;65.70;;;;;;5093761;28;20042;-74
2022/06/13 02:50:11;;;;;;;4.10;2.63;;;22.50;65.80;;;;;;5093970;28;20051;-75
2022/06/13 02:53:33;;;;;;;38.42;4.70;;;22.20;67.50;;;;;;5094093;28;20035;-74
2022/06/13 03:00:15;;;;;;;8.25;3.17;;;21.90;68.60;;;;;;5093436;28;20047;-75
2022/06/13 03:03:38;;;;;;;8.07;3.17;;;21.80;68.60;;;;;;5081063;28;20396;-75
2022/06/13 03:07:03;;;;;;;9.65;2.80;;;21.80;68.50;;;;;;5093817;28;20051;-75
2022/06/13 03:10:17;;;;;;;8.80;2.90;;;21.70;68.60;;;;;;5093510;28;20043;-74
2022/06/13 03:13:38;;;;;;;3.22;2.70;;;21.70;68.20;;;;;;5093725;28;20047;-74
2022/06/13 03:16:48;;;;;;;4.88;2.78;;;21.70;68.60;;;;;;5093311;28;20050;-74
2022/06/13 03:20:10;;;;;;;5.97;3.22;;;21.80;68.00;;;;;;5092991;28;20093;-74
2022/06/13 03:23:17;;;;;;;8.43;3.47;;;21.80;68.20;;;;;;5092673;28;20043;-75
2022/06/13 03:26:32;;;;;;;6.03;2.80;;;21.60;68.30;;;;;;5092141;28;20043;-74
2022/06/13 03:30:06;;;;;;;5.90;3.25;;;21.50;68.00;;;;;;5093257;28;20050;-75
2022/06/13 03:36:47;;;;;;;3.85;2.80;;;21.40;69.10;;;;;;5092820;28;20055;-74
2022/06/13 03:40:15;;;;;;;6.78;3.85;;;21.50;69.10;;;;;;5091819;28;20387;-74
2022/06/13 03:43:28;;;;;;;7.47;3.35;;;21.60;69.10;;;;;;5092933;28;20122;-75
2022/06/13 03:46:56;;;;;;;9.32;2.80;;;21.60;69.30;;;;;;5092027;28;20043;-74
2022/06/13 03:50:23;;;;;;;11.52;3.10;;;21.50;69.30;;;;;;5092529;28;20617;-74
2022/06/13 03:53:39;;;;;;;9.13;3.40;;;21.40;69.80;;;;;;5093088;28;20051;-74
2022/06/13 03:56:49;;;;;;;8.15;3.53;;;21.50;70.20;;;;;;5092515;28;20047;-74
2022/06/13 04:00:10;;;;;;;11.57;3.42;;;21.40;71.20;;;;;;5092233;28;20051;-75
2022/06/13 04:03:15;;;;;;;7.78;3.35;;;21.50;69.70;;;;;;5092663;28;20054;-74
2022/06/13 04:06:42;;;;;;;7.90;3.25;;;21.50;70.70;;;;;;5092383;28;20039;-74
2022/06/13 04:09:55;;;;;;;6.22;2.80;;;21.50;70.20;;;;;;5092210;28;20051;-75
2022/06/13 04:13:10;;;;;;;8.50;3.00;;;21.50;70.00;;;;;;5091492;28;20051;-74
2022/06/13 04:16:30;;;;;;;103.20;7.28;;;21.50;70.30;;;;;;5092322;28;20059;-75
2022/06/13 04:19:57;;;;;;;28.30;4.15;;;21.60;70.20;;;;;;5092326;28;20047;-74
2022/06/13 04:23:33;;;;;;;8.05;2.80;;;21.70;69.80;;;;;;5092370;28;20077;-75
2022/06/13 04:27:01;;;;;;;5.70;2.95;;;21.70;69.10;;;;;;5092018;28;20039;-74
2022/06/13 04:30:21;;;;;;;7.00;3.00;;;21.90;69.80;;;;;;5090866;28;20042;-74
2022/06/13 04:33:50;;;;;;;10.63;3.15;;;21.80;69.40;;;;;;5091829;28;20047;-74
2022/06/13 04:36:55;;;;;;;10.05;3.40;;;21.90;70.00;;;;;;5091294;28;20514;-74
2022/06/13 04:40:04;;;;;;;11.93;3.00;;;22.20;69.20;;;;;;5090824;28;20043;-75
2022/06/13 04:43:12;;;;;;;12.18;3.05;;;22.50;68.60;;;;;;5091999;28;20077;-75
2022/06/13 04:46:22;;;;;;;16.23;3.67;;;22.70;68.00;;;;;;5091387;28;20039;-75
2022/06/13 04:49:39;;;;;;;7.65;3.20;;;23.10;67.00;;;;;;5091538;28;20039;-75
2022/06/13 04:52:48;;;;;;;8.57;3.55;;;23.10;67.10;;;;;;5090902;28;20055;-74
2022/06/13 04:55:54;;;;;;;17.65;4.57;;;23.20;66.30;;;;;;5091672;28;20043;-75
2022/06/13 04:58:59;;;;;;;11.18;3.45;;;23.50;66.70;;;;;;5091333;28;20050;-75
2022/06/13 05:02:03;;;;;;;11.52;3.72;;;23.80;66.20;;;;;;5091825;28;20051;-74
2022/06/13 05:05:29;;;;;;;13.73;4.07;;;24.10;65.80;;;;;;5091497;28;20047;-75
2022/06/13 05:08:36;;;;;;;16.20;3.15;;;24.20;65.70;;;;;;5091474;28;20059;-75
2022/06/13 05:12:05;;;;;;;13.23;3.70;;;24.60;65.40;;;;;;5091223;28;20035;-75
2022/06/13 05:15:18;;;;;;;9.93;3.78;;;24.90;64.50;;;;;;5090342;28;20059;-75
2022/06/13 05:18:28;;;;;;;19.02;4.40;;;25.10;63.30;;;;;;5090542;28;20051;-74
2022/06/13 05:21:32;;;;;;;10.63;3.42;;;25.40;63.30;;;;;;5091048;28;20047;-75
2022/06/13 05:25:14;;;;;;;11.27;4.20;;;25.60;62.30;;;;;;5091354;28;20063;-75
2022/06/13 05:28:21;;;;;;;12.45;3.85;;;25.90;62.60;;;;;;5091307;28;20054;-75
2022/06/13 05:31:24;;;;;;;10.82;4.05;;;26.20;61.70;;;;;;5091023;28;20419;-75
2022/06/13 05:34:33;;;;;;;7.60;3.45;;;26.40;60.30;;;;;;5091315;28;20047;-75
2022/06/13 05:37:38;;;;;;;16.50;3.53;;;26.60;59.30;;;;;;5090847;28;20150;-74
2022/06/13 05:40:43;;;;;;;17.45;3.47;;;26.80;58.60;;;;;;5078776;28;20043;-69
2022/06/13 05:43:47;;;;;;;15.40;2.88;;;26.90;59.50;;;;;;5090751;28;20051;-70
2022/06/13 05:46:51;;;;;;;14.88;3.22;;;27.20;61.90;;;;;;5090229;28;20039;-69
2022/06/13 05:49:55;;;;;;;9.65;3.13;;;27.50;59.20;;;;;;5093941;28;20407;-69
2022/06/13 05:53:00;;;;;;;11.23;3.25;;;27.70;55.10;;;;;;5095071;28;20491;-69
2022/06/13 05:56:04;;;;;;;17.40;3.22;;;27.80;55.80;;;;;;5094834;28;20503;-70
2022/06/13 05:59:09;;;;;;;16.20;2.95;;;28.00;57.50;;;;;;5094897;28;20494;-70
2022/06/13 06:02:13;;;;;;;11.55;2.95;;;28.20;56.00;;;;;;5094917;28;20383;-75
2022/06/13 06:05:17;;;;;;;16.77;3.55;;;28.50;55.40;;;;;;5094582;28;20043;-75
2022/06/13 06:08:35;;;;;;;14.90;4.28;;;28.60;54.60;;;;;;5094688;28;20205;-75
2022/06/13 06:11:39;;;;;;;11.40;3.40;;;28.70;55.60;;;;;;5094558;28;20225;-75
2022/06/13 06:14:43;;;;;;;16.15;3.58;;;28.80;55.10;;;;;;5094768;28;20051;-75
2022/06/13 06:17:47;;;;;;;12.65;3.42;;;29.10;54.30;;;;;;5093544;28;20116;-73
2022/06/13 06:20:52;;;;;;;12.85;3.50;;;29.30;54.40;;;;;;5094237;28;20047;-74
2022/06/13 06:23:56;;;;;;;10.40;2.90;;;29.50;55.80;;;;;;5094194;28;20142;-72
2022/06/13 06:27:01;;;;;;;20.08;4.43;;;29.80;55.10;;;;;;5093695;28;20043;-73
2022/06/13 06:30:06;;;;;;;12.40;2.67;;;29.90;54.60;;;;;;5094386;28;20047;-71
2022/06/13 06:33:10;;;;;;;12.30;2.92;;;30.10;53.60;;;;;;5094514;28;20039;-73
2022/06/13 06:36:15;;;;;;;13.82;2.72;;;30.10;52.70;;;;;;5094091;28;20284;-73
2022/06/13 06:39:19;;;;;;;12.93;2.83;;;30.10;52.10;;;;;;5094074;28;20059;-71
2022/06/13 06:42:23;;;;;;;13.05;3.22;;;30.10;52.20;;;;;;5094085;28;20043;-72
2022/06/13 06:45:27;;;;;;;10.73;2.60;;;30.40;51.70;;;;;;5094074;28;20380;-71
2022/06/13 06:48:31;;;;;;;14.13;2.50;;;30.70;51.80;;;;;;5093307;28;20150;-75
2022/06/13 06:51:35;;;;;;;12.15;2.60;;;31.00;51.40;;;;;;5093909;28;20035;-71
2022/06/13 07:01:27;;;;;;;5.13;2.40;;;31.80;50.00;;;;;;5093110;28;20436;-71
2022/06/13 07:04:31;;;;;;;11.50;2.38;;;32.20;49.40;;;;;;5092880;28;20079;-71
2022/06/13 07:07:35;;;;;;;14.45;2.30;;;32.20;49.00;;;;;;5092645;28;20043;-71
2022/06/13 07:10:39;;;;;;;6.13;2.40;;;32.10;49.20;;;;;;5093130;28;20047;-70
2022/06/13 07:13:43;;;;;;;14.45;2.40;;;32.20;48.70;;;;;;5093410;28;20043;-72
2022/06/13 07:16:47;;;;;;;7.35;2.30;;;32.30;49.50;;;;;;5093192;28;20423;-73
2022/06/13 07:19:51;;;;;;;4.63;2.17;;;32.50;48.40;;;;;;5093412;28;20050;-71
2022/06/13 07:22:55;;;;;;;9.35;2.17;;;32.50;48.60;;;;;;5093229;28;20130;-72
2022/06/13 07:25:59;;;;;;;17.10;3.03;;;32.50;48.30;;;;;;5093141;28;20039;-70
2022/06/13 07:29:05;;;;;;;17.65;2.38;;;32.30;48.70;;;;;;5092441;28;20043;-72
2022/06/13 07:32:22;;;;;;;10.23;2.50;;;32.60;49.10;;;;;;5093053;28;20047;-70
2022/06/13 07:35:26;;;;;;;7.60;2.80;;;32.80;48.20;;;;;;5092756;28;20296;-69
2022/06/13 07:38:30;;;;;;;135.63;13.43;;;33.00;47.80;;;;;;5092808;28;20392;-70
2022/06/13 07:41:38;;;;;;;11.68;2.78;;;33.20;48.20;;;;;;5091830;28;20043;-75
2022/06/13 07:44:42;;;;;;;17.88;3.30;;;33.30;48.20;;;;;;5093068;28;20051;-74
2022/06/13 07:47:46;;;;;;;5.10;2.28;;;33.40;47.90;;;;;;5092104;28;20045;-73
2022/06/13 07:50:51;;;;;;;6.70;2.65;;;33.50;47.80;;;;;;5092705;28;20391;-73
2022/06/13 07:53:54;;;;;;;9.15;2.50;;;33.70;48.20;;;;;;5092862;28;20400;-73
2022/06/13 07:56:58;;;;;;;10.68;2.78;;;33.80;47.40;;;;;;5092336;28;20055;-73
2022/06/13 08:00:05;;;;;;;11.30;2.60;;;33.80;47.60;;;;;;5092197;28;20047;-72
2022/06/13 08:03:16;;;;;;;6.63;2.05;;;33.60;47.50;;;;;;5092347;28;20051;-72
2022/06/13 08:06:21;;;;;;;8.13;2.40;;;33.20;46.70;;;;;;5092553;28;20388;-71
2022/06/13 08:09:26;;;;;;;8.18;2.28;;;32.80;47.00;;;;;;5092291;28;20157;-72
2022/06/13 08:12:32;;;;;;;10.82;2.30;;;33.10;47.40;;;;;;5090492;28;20050;-70
2022/06/13 08:15:35;;;;;;;7.80;2.15;;;33.40;46.60;;;;;;5092021;28;20043;-70
2022/06/13 08:18:40;;;;;;;4.63;1.98;;;33.60;45.50;;;;;;5092376;28;20102;-73
2022/06/13 08:21:44;;;;;;;3.72;2.17;;;33.70;45.20;;;;;;5092312;28;20039;-73
2022/06/13 08:24:48;;;;;;;3.08;1.73;;;33.80;45.80;;;;;;5092123;28;20047;-73
2022/06/13 08:27:52;;;;;;;20.48;2.45;;;33.70;44.80;;;;;;5091670;28;20035;-71
2022/06/13 08:31:05;;;;;;;7.97;2.17;;;33.40;45.20;;;;;;5091701;28;20047;-73
2022/06/13 08:34:09;;;;;;;8.68;2.45;;;33.40;45.10;;;;;;5092022;28;20356;-75
2022/06/13 08:37:13;;;;;;;6.97;1.92;;;33.60;44.30;;;;;;5091710;28;20055;-70
2022/06/13 08:40:17;;;;;;;6.32;2.25;;;34.00;44.70;;;;;;5091858;28;20122;-71
2022/06/13 08:43:36;;;;;;;6.55;1.90;;;34.10;44.30;;;;;;5079029;28;20043;-71
2022/06/13 08:47:02;;;;;;;5.40;1.83;;;34.20;45.20;;;;;;5091736;28;20051;-72
2022/06/13 08:50:18;;;;;;;7.80;1.83;;;34.30;45.60;;;;;;5090466;28;20050;-71
2022/06/13 08:53:26;;;;;;;6.75;1.95;;;34.40;44.30;;;;;;5091554;28;20063;-69
2022/06/13 08:56:35;;;;;;;6.70;1.70;;;34.40;44.10;;;;;;5091174;28;20047;-71
2022/06/13 08:59:54;;;;;;;7.93;1.63;;;34.40;43.30;;;;;;5090737;28;20305;-72
2022/06/13 09:03:09;;;;;;;3.75;1.50;;;34.30;43.80;;;;;;5090389;28;20039;-73
2022/06/13 09:06:29;;;;;;;19.65;2.95;;;34.20;43.60;;;;;;5090331;28;20039;-73
2022/06/13 09:09:40;;;;;;;6.30;1.60;;;34.40;43.50;;;;;;5090089;28;20051;-72
2022/06/13 09:12:58;;;;;;;;;;;34.30;44.00;;;;;;5091431;28;20039;-73
2022/06/13 09:16:27;;;;;;;11.88;2.13;;;34.40;44.80;;;;;;5090499;28;19938;-72
2022/06/13 09:19:47;;;;;;;11.25;1.95;;;34.30;44.40;;;;;;5095130;28;20388;-72
2022/06/13 09:23:19;;;;;;;6.18;1.70;;;34.00;43.10;;;;;;5090833;28;20114;-72
2022/06/13 09:26:32;;;;;;;10.65;1.77;;;33.90;43.90;;;;;;5091089;28;20043;-71
2022/06/13 09:29:43;;;;;;;2.65;1.40;;;33.70;44.00;;;;;;5090796;28;20039;-70
2022/06/13 09:32:55;;;;;;;8.35;1.50;;;33.30;44.00;;;;;;5090584;28;20407;-73
2022/06/13 09:36:10;;;;;;;4.38;1.67;;;33.30;44.00;;;;;;5090408;28;20114;-73
2022/06/13 09:39:15;;;;;;;8.57;1.50;;;33.30;44.90;;;;;;5090751;28;20455;-73
2022/06/13 09:42:40;;;;;;;5.43;1.60;;;33.60;43.70;;;;;;5090854;28;20043;-73
2022/06/13 09:46:19;;;;;;;3.38;1.17;;;33.80;43.00;;;;;;5091035;28;20054;-71
2022/06/13 09:49:37;;;;;;;5.22;1.50;;;33.90;43.10;;;;;;5089829;28;20043;-69
2022/06/13 09:53:03;;;;;;;35.20;3.38;;;34.00;41.40;;;;;;5091439;28;20051;-69
2022/06/13 09:56:33;;;;;;;3.35;1.17;;;33.60;40.70;;;;;;5091199;28;20066;-70
2022/06/13 10:00:00;;;;;;;1.90;1.15;;;33.70;42.60;;;;;;5090527;28;20059;-69
2022/06/13 10:03:21;;;;;;;3.38;1.40;;;33.70;43.10;;;;;;5090339;28;20043;-70
2022/06/13 10:06:38;;;;;;;4.07;1.33;;;33.80;42.10;;;;;;5090466;28;20652;-69
2022/06/13 10:09:46;;;;;;;3.95;1.48;;;33.70;42.50;;;;;;5090323;28;20055;-68
2022/06/13 10:12:58;;;;;;;4.55;1.42;;;33.70;43.20;;;;;;5088902;28;20440;-69
2022/06/13 10:16:26;;;;;;;5.10;1.38;;;33.50;42.60;;;;;;5090641;28;20047;-67
2022/06/13 10:19:53;;;;;;;8.25;1.65;;;33.30;42.70;;;;;;5090433;28;20055;-69
2022/06/13 10:23:01;;;;;;;6.57;1.85;;;33.20;43.60;;;;;;5090490;28;20197;-68
2022/06/13 10:26:23;;;;;;;4.10;1.40;;;33.10;43.30;;;;;;5090431;28;20058;-69
2022/06/13 10:29:45;;;;;;;3.53;1.63;;;32.90;42.70;;;;;;5090325;28;20039;-72
2022/06/13 10:32:58;;;;;;;3.67;1.92;;;33.10;43.90;;;;;;5090251;28;20050;-68
2022/06/13 10:36:39;;;;;;;6.78;1.50;;;33.10;43.50;;;;;;5093648;28;20039;-69
2022/06/13 10:39:44;;;;;;;;;;;33.20;43.40;;;;;;5094633;28;20396;-70
2022/06/13 10:42:48;;;;;;;4.72;1.55;;;32.90;42.60;;;;;;5094766;28;19908;-68
2022/06/13 10:45:52;;;;;;;5.72;1.80;;;32.60;42.80;;;;;;5094313;28;20063;-69
2022/06/13 10:49:04;;;;;;;3.75;1.63;;;32.40;42.80;;;;;;5093710;28;20043;-68
2022/06/13 10:52:14;;;;;;;1.90;1.38;;;32.20;43.40;;;;;;5093295;28;20047;-69
2022/06/13 10:55:23;;;;;;;8.38;2.33;;;32.30;43.30;;;;;;5094195;28;20059;-69
2022/06/13 10:58:52;;;;;;;3.97;1.67;;;32.30;44.40;;;;;;5092600;28;20051;-69
2022/06/13 11:02:04;;;;;;;6.45;1.33;;;32.40;42.70;;;;;;5093618;28;20051;-70
2022/06/13 11:05:17;;;;;;;3.42;1.58;;;32.30;42.30;;;;;;5093978;28;20388;-70
2022/06/13 11:08:22;;;;;;;5.95;1.33;;;32.40;43.00;;;;;;5093838;28;20051;-69
2022/06/13 11:11:39;;;;;;;4.40;1.40;;;32.50;42.90;;;;;;5093640;28;20051;-70
2022/06/13 11:25:25;;;;;;;3.30;1.50;;;32.60;42.30;;;;;;5093462;28;20396;-70
2022/06/13 11:28:39;;;;;;;4.57;1.60;;;32.60;41.50;;;;;;5093562;28;20051;-70
2022/06/13 11:31:51;;;;;;;5.47;1.65;;;32.60;43.60;;;;;;5093346;28;20051;-70
2022/06/13 11:34:55;;;;;;;8.25;1.50;;;32.70;44.10;;;;;;5092363;28;20047;-70
2022/06/13 11:38:23;;;;;;;3.00;1.13;;;32.70;41.80;;;;;;5092954;28;20055;-70
2022/06/13 11:41:36;;;;;;;3.88;1.60;;;32.60;41.90;;;;;;5093224;28;20043;-70
2022/06/13 11:44:44;;;;;;;6.20;1.83;;;32.70;42.40;;;;;;5092864;28;20491;-68
2022/06/13 11:47:51;;;;;;;2.85;1.60;;;32.70;42.20;;;;;;5092022;28;20073;-69
2022/06/13 11:50:58;;;;;;;4.57;1.45;;;32.60;42.80;;;;;;5092639;28;20546;-70
2022/06/13 11:54:02;;;;;;;4.32;1.42;;;32.70;42.80;;;;;;5092779;28;20047;-70
2022/06/13 11:57:12;;;;;;;8.40;1.50;;;32.70;41.70;;;;;;5092348;28;20055;-69
2022/06/13 12:00:16;;;;;;;3.00;1.50;;;32.80;41.70;;;;;;5092115;28;20055;-68
2022/06/13 12:03:25;;;;;;;1.98;1.30;;;32.60;41.00;;;;;;5092610;28;20265;-69
2022/06/13 12:06:46;;;;;;;6.00;1.65;;;32.60;42.10;;;;;;5092679;28;20051;-69
2022/06/13 12:09:56;;;;;;;4.45;1.85;;;32.50;41.30;;;;;;5091692;28;20035;-71
2022/06/13 12:13:00;;;;;;;7.13;1.70;;;32.40;41.80;;;;;;5092436;28;20043;-69
2022/06/13 12:16:25;;;;;;;3.78;1.30;;;32.30;43.00;;;;;;5092520;28;20046;-70
2022/06/13 12:19:30;;;;;;;3.05;1.20;;;32.40;42.60;;;;;;5091973;28;20051;-70
2022/06/13 12:22:49;;;;;;;1.48;1.10;;;32.50;42.80;;;;;;5091965;28;20038;-70
2022/06/13 12:26:05;;;;;;;2.13;1.23;;;32.50;43.60;;;;;;5092078;28;20039;-70
2022/06/13 12:29:35;;;;;;;2.92;1.40;;;32.60;43.90;;;;;;5091798;28;20051;-70
2022/06/13 12:32:42;;;;;;;1.90;1.15;;;32.60;40.90;;;;;;5092236;28;20059;-69
2022/06/13 12:36:07;;;;;;;2.65;1.40;;;32.60;41.60;;;;;;5091642;28;20047;-71
2022/06/13 12:39:39;;;;;;;1.30;1.20;;;32.60;42.90;;;;;;5091620;28;20114;-70
2022/06/13 12:42:46;;;;;;;3.70;1.35;;;32.60;43.50;;;;;;5090528;28;20490;-69
2022/06/13 12:46:09;;;;;;;1.90;1.40;;;32.60;43.80;;;;;;5091825;28;20348;-70
2022/06/13 12:49:50;;;;;;;10.70;2.03;;;32.50;43.90;;;;;;5091878;28;20039;-70
2022/06/13 12:53:27;;;;;;;5.07;1.42;;;32.50;44.40;;;;;;5091976;28;20055;-70
2022/06/13 12:56:54;;;;;;;2.33;1.40;;;32.50;44.70;;;;;;5091856;28;20502;-69
2022/06/13 13:00:26;;;;;;;4.50;1.55;;;32.50;44.40;;;;;;5091176;28;20051;-70
2022/06/13 13:03:39;;;;;;;10.35;2.47;;;32.50;46.10;;;;;;5091804;28;20058;-70
2022/06/13 13:06:56;;;;;;;4.75;2.25;;;32.50;49.20;;;;;;5091618;28;20289;-70
2022/06/13 13:10:03;;;;;;;6.80;3.00;;;32.50;49.20;;;;;;5091589;28;20051;-69
2022/06/13 13:13:28;;;;;;;7.07;2.50;;;32.50;50.10;;;;;;5091647;28;20047;-70
2022/06/13 13:17:04;;;;;;;5.68;2.70;;;32.40;49.50;;;;;;5091390;28;20050;-69
2022/06/13 13:20:26;;;;;;;15.95;3.63;;;32.40;49.70;;;;;;5091402;28;20046;-71
2022/06/13 13:23:45;;;;;;;12.00;2.85;;;32.30;51.60;;;;;;5091454;28;20059;-69
2022/06/13 13:27:03;;;;;;;14.63;3.53;;;33.20;51.30;;;;;;5091108;28;20042;-71
2022/06/13 13:30:23;;;;;;;8.73;2.70;;;34.00;49.40;;;;;;5090826;28;20062;-69
2022/06/13 13:33:56;;;;;;;10.55;3.00;;;34.40;48.80;;;;;;5091073;28;20050;-71
2022/06/13 13:37:03;;;;;;;14.75;3.28;;;34.70;47.80;;;;;;5078520;28;20035;-70
2022/06/13 13:40:08;;;;;;;11.77;3.00;;;35.40;47.80;;;;;;5090875;28;20396;-69
2022/06/13 13:43:23;;;;;;;12.32;3.10;;;35.70;47.50;;;;;;5090970;28;20051;-69
2022/06/13 13:46:43;;;;;;;14.57;3.25;;;35.60;47.40;;;;;;5090876;28;20062;-69
2022/06/13 13:49:56;;;;;;;17.92;3.28;;;35.40;47.90;;;;;;5090951;28;20055;-68
2022/06/13 13:53:05;;;;;;;21.65;3.72;;;35.40;48.30;;;;;;5090875;28;20287;-75
2022/06/13 13:56:22;;;;;;;10.45;2.20;;;35.70;48.50;;;;;;5090090;28;20059;-71
2022/06/13 13:59:32;;;;;;;9.27;2.80;;;35.40;48.40;;;;;;5090523;28;20487;-73
2022/06/13 14:02:49;;;;;;;11.13;2.50;;;35.70;50.70;;;;;;5090853;28;20066;-74
2022/06/13 14:06:09;;;;;;;10.57;2.30;;;35.60;50.20;;;;;;5090873;28;20047;-71
2022/06/13 14:09:19;;;;;;;13.18;2.22;;;35.50;48.60;;;;;;5090322;28;20043;-72
2022/06/13 14:12:22;;;;;;;7.65;2.53;;;35.80;49.20;;;;;;5093733;28;20043;-71
2022/06/13 14:15:41;;;;;;;22.77;3.30;;;35.80;48.90;;;;;;5094610;28;20043;-71
2022/06/13 14:18:45;;;;;;;18.75;3.35;;;35.70;49.20;;;;;;5094238;28;20059;-71
2022/06/13 14:21:49;;;;;;;7.10;2.40;;;35.70;50.00;;;;;;5094341;28;20051;-72
2022/06/13 14:25:15;;;;;;;15.40;2.75;;;35.50;49.80;;;;;;5094357;28;20047;-73
2022/06/13 14:28:21;;;;;;;17.40;2.70;;;35.20;49.40;;;;;;5097610;28;20062;-73
2022/06/13 14:31:26;;;;;;;12.48;2.35;;;35.10;49.90;;;;;;5094116;28;20051;-81
2022/06/13 14:38:21;;;;;;;13.27;2.70;;;35.80;49.60;;;;;;5094260;28;20055;-75
2022/06/13 14:41:28;;;;;;;7.70;2.20;;;36.00;48.80;;;;;;5093266;28;20054;-74
2022/06/13 14:44:39;;;;;;;13.50;2.40;;;36.00;48.40;;;;;;5093965;28;20039;-79
2022/06/13 14:47:54;;;;;;;6.97;2.72;;;35.70;48.60;;;;;;5093806;28;20494;-78
2022/06/13 14:51:01;;;;;;;14.52;2.83;;;35.70;49.00;;;;;;5093588;28;20043;-77
2022/06/13 14:54:37;;;;;;;18.27;2.78;;;35.70;49.20;;;;;;5092358;28;20387;-72
2022/06/13 14:57:47;;;;;;;10.32;2.50;;;35.80;49.60;;;;;;5092447;28;20510;-70
2022/06/13 15:01:25;;;;;;;7.40;2.65;;;35.60;49.30;;;;;;5092154;28;20059;-85
2022/06/13 15:04:29;;;;;;;19.65;2.53;;;35.70;49.80;;;;;;5092359;28;20043;-76
2022/06/13 15:07:56;;;;;;;9.07;2.28;;;35.30;48.70;;;;;;5093716;28;20519;-75
2022/06/13 15:11:00;;;;;;;13.20;2.67;;;35.00;49.60;;;;;;5093304;28;20047;-76
2022/06/13 15:14:11;;;;;;;9.43;3.33;;;35.10;49.80;;;;;;5092981;28;20043;-75
2022/06/13 15:17:16;;;;;;;12.45;2.33;;;34.60;50.00;;;;;;5093209;28;20054;-75
2022/06/13 15:20:28;;;;;;;11.05;2.17;;;34.00;50.40;;;;;;5092677;28;20043;-78
2022/06/13 15:23:39;;;;;;;13.48;2.05;;;33.60;51.10;;;;;;5093013;28;20042;-72
2022/06/13 15:26:45;;;;;;;8.82;2.70;;;33.20;51.60;;;;;;5093146;28;20051;-75
2022/06/13 15:30:14;;;;;;;7.47;2.83;;;32.90;52.10;;;;;;5092008;28;20043;-78
2022/06/13 15:33:23;;;;;;;9.00;2.25;;;32.70;52.60;;;;;;5091984;28;20039;-75
2022/06/13 15:36:29;;;;;;;7.57;1.98;;;32.60;52.90;;;;;;5092327;28;20399;-81
2022/06/13 15:39:37;;;;;;;12.30;2.40;;;32.40;53.10;;;;;;5080183;28;20059;-79
2022/06/13 15:42:41;;;;;;;17.02;2.50;;;32.30;53.40;;;;;;5092805;28;20051;-76
2022/06/13 15:45:45;;;;;;;20.80;3.08;;;32.20;53.60;;;;;;5092783;28;20042;-72
2022/06/13 15:48:50;;;;;;;10.05;2.25;;;32.10;54.00;;;;;;5092701;28;20043;-71
2022/06/13 15:52:10;;;;;;;6.18;2.33;;;32.00;53.90;;;;;;5092742;28;20510;-71
2022/06/13 15:55:18;;;;;;;10.02;2.72;;;32.00;53.70;;;;;;5092631;28;20106;-71
2022/06/13 15:58:28;;;;;;;9.38;3.33;;;31.90;53.40;;;;;;5091970;28;20408;-69
2022/06/13 16:01:44;;;;;;;11.18;2.83;;;31.80;53.70;;;;;;5092064;28;20055;-69
2022/06/13 16:04:49;;;;;;;14.50;3.70;;;31.80;53.80;;;;;;5092052;28;20059;-69
2022/06/13 16:08:00;;;;;;;11.52;2.65;;;31.70;54.10;;;;;;5092226;28;20412;-71
2022/06/13 16:11:05;;;;;;;;;;;31.60;53.80;;;;;;5092591;28;20059;-71
2022/06/13 16:14:09;;;;;;;21.52;2.97;;;31.60;53.90;;;;;;5091815;28;19963;-74
2022/06/13 16:17:36;;;;;;;13.65;3.08;;;31.60;54.10;;;;;;5092181;28;20066;-75
2022/06/13 16:20:43;;;;;;;10.13;2.90;;;31.60;53.80;;;;;;5091072;28;20055;-69
2022/06/13 16:23:55;;;;;;;8.05;2.55;;;31.50;53.80;;;;;;5091251;28;20056;-73
2022/06/13 16:27:01;;;;;;;13.27;2.53;;;31.50;54.20;;;;;;5091095;28;20040;-73
2022/06/13 16:30:07;;;;;;;11.05;2.78;;;31.50;54.50;;;;;;5091682;28;20043;-73
2022/06/13 16:33:24;;;;;;;11.68;2.97;;;31.40;55.50;;;;;;5089904;28;20047;-74
2022/06/13 16:36:37;;;;;;;10.20;2.22;;;31.40;56.10;;;;;;5091458;28;20039;-77
2022/06/13 16:39:44;;;;;;;11.82;2.78;;;31.30;55.60;;;;;;5091587;28;20055;-76
2022/06/13 16:42:48;;;;;;;11.23;2.47;;;31.30;55.60;;;;;;5091484;28;20109;-78
2022/06/13 16:46:12;;;;;;;12.50;2.63;;;31.20;55.90;;;;;;5090745;28;20490;-75
2022/06/13 16:49:40;;;;;;;12.50;2.53;;;31.20;55.60;;;;;;5078763;28;20063;-71
2022/06/13 16:52:51;;;;;;;27.80;3.75;;;31.10;55.50;;;;;;5091202;28;20035;-73
2022/06/13 16:55:55;;;;;;;8.70;2.60;;;31.10;55.50;;;;;;5089627;28;20062;-73
2022/06/13 16:59:06;;;;;;;14.43;3.03;;;31.00;56.00;;;;;;5089525;28;20411;-72
2022/06/13 17:02:13;;;;;;;7.97;2.42;;;30.90;56.20;;;;;;5091098;28;20039;-73
2022/06/13 17:05:51;;;;;;;14.35;2.75;;;30.80;56.10;;;;;;5088346;28;20059;-71
2022/06/13 17:09:10;;;;;;;10.73;2.65;;;30.80;55.80;;;;;;5092649;28;20359;-72
2022/06/13 17:12:14;;;;;;;16.90;2.33;;;30.70;56.20;;;;;;5089987;28;20043;-72